Weather at Sangster International Airport

Public forecast

Using degrees Celsius for public forecast. Weather courtesy of forecast.io.

Current aviation weather report (METAR) for Sangster International Airport

2024/07/16 18:00 (retrieved 56 minutes ago)

MKJS 161800Z 06018KT 9999 FEW020 FEW022CB 31/26 Q1013

Aviation forecast (TAF) for Sangster International Airport

2024/07/16 18:22 (retrieved 34 minutes ago)

TAF MKJS 161715Z 1618/1718 07020KT 9999 FEW022 BECMG 1700/1702 10005KT BECMG 1714/1716 08018KT